MRK weather

Marco Island Executive Airport
Marco Island, Florida, United States

Public forecast

Using degrees Fahrenheit for public forecast. Weather courtesy of forecast.io.

METAR (pilot weather report)

Retrieved 2019/09/23 15:56 UTC (60 minutes ago):

KMKY 231556Z AUTO 03012KT 10SM CLR 29/19 A3001 RMK AO2 SLP160 T02890189 TSNO $

TAF (pilot weather forecast)

Closest forecast is Naples Municipal Airport, 11.0 nm (20.3 km) NNW. Retrieved 2019/09/23 12:33 UTC (4 hours ago):

TAF KAPF 231130Z 2312/2412 06008KT P6SM FEW030 FM231500 06012KT P6SM FEW040 SCT250 FM240300 04008KT P6SM FEW040 FEW250 FM240800 02004KT P6SM FEW040